createdAt,value
2023-05-20T00:01:50.706Z,100.00
2023-05-20T00:04:17.377Z,100.00
2023-05-20T00:06:44.124Z,100.00
2023-05-20T00:09:11.105Z,100.00
2023-05-20T00:11:37.765Z,100.00
2023-05-20T00:14:04.518Z,100.00
2023-05-20T00:16:31.272Z,100.00
2023-05-20T00:18:58.111Z,100.00
2023-05-20T00:21:24.781Z,100.00
2023-05-20T00:23:51.864Z,100.00
2023-05-20T00:26:18.858Z,100.00
2023-05-20T00:28:45.583Z,100.00
2023-05-20T00:31:12.315Z,100.00
2023-05-20T00:33:39.128Z,100.00
2023-05-20T00:36:06.402Z,100.00
2023-05-20T00:38:34.287Z,100.00
2023-05-20T00:41:01.026Z,100.00
2023-05-20T00:43:27.706Z,100.00
2023-05-20T00:45:54.448Z,100.00
2023-05-20T00:48:22.173Z,100.00
2023-05-20T00:50:50.204Z,100.00
2023-05-20T00:53:24.668Z,100.00
2023-05-20T00:55:51.443Z,100.00
2023-05-20T00:58:18.264Z,100.00
2023-05-20T01:00:45.117Z,100.00
2023-05-20T01:03:13.191Z,100.00
2023-05-20T01:05:42.261Z,100.00
2023-05-20T01:08:09.560Z,100.00
2023-05-20T01:10:41.976Z,100.00
2023-05-20T01:13:16.362Z,100.00
2023-05-20T01:15:48.324Z,100.00
2023-05-20T01:18:18.495Z,100.00
2023-05-20T01:20:49.828Z,100.00
2023-05-20T01:23:17.389Z,100.00
2023-05-20T01:25:44.025Z,100.00
2023-05-20T01:28:18.214Z,100.00
2023-05-20T01:30:51.391Z,100.00
2023-05-20T01:33:21.124Z,100.00
2023-05-20T01:35:47.972Z,100.00
2023-05-20T01:38:17.959Z,100.00
2023-05-20T01:40:45.673Z,100.00
2023-05-20T01:43:15.092Z,100.00
2023-05-20T01:45:43.690Z,100.00
2023-05-20T01:48:14.696Z,100.00
2023-05-20T01:50:41.373Z,100.00
2023-05-20T01:53:11.062Z,100.00
2023-05-20T01:55:37.942Z,100.00
2023-05-20T01:58:05.045Z,100.00
2023-05-20T02:00:34.234Z,100.00
2023-05-20T02:03:01.118Z,100.00
2023-05-20T02:05:27.857Z,100.00
2023-05-20T02:07:54.852Z,100.00
2023-05-20T02:10:21.534Z,100.00
2023-05-20T02:12:49.514Z,100.00
2023-05-20T02:15:16.405Z,100.00
2023-05-20T02:17:43.865Z,100.00
2023-05-20T02:20:11.948Z,100.00
2023-05-20T02:22:38.707Z,100.00
2023-05-20T02:25:05.943Z,100.00
2023-05-20T02:27:32.709Z,100.00
2023-05-20T02:30:00.605Z,100.00
2023-05-20T02:32:29.013Z,100.00
2023-05-20T02:34:55.887Z,100.00
2023-05-20T02:37:22.601Z,100.00
2023-05-20T02:39:49.272Z,100.00
2023-05-20T02:42:15.996Z,100.00
2023-05-20T02:44:42.603Z,100.00
2023-05-20T02:47:09.242Z,100.00
2023-05-20T02:49:36.241Z,100.00
2023-05-20T02:52:02.947Z,100.00
2023-05-20T02:54:29.673Z,100.00
2023-05-20T02:56:56.307Z,100.00
2023-05-20T02:59:22.978Z,100.00
2023-05-20T03:01:49.703Z,100.00
2023-05-20T03:04:16.378Z,100.00
2023-05-20T03:06:44.720Z,100.00
2023-05-20T03:09:11.661Z,100.00
2023-05-20T03:11:38.348Z,100.00
2023-05-20T03:14:04.929Z,100.00
2023-05-20T03:16:31.692Z,100.00
2023-05-20T03:18:58.370Z,100.00
2023-05-20T03:21:25.447Z,100.00
2023-05-20T03:23:52.081Z,100.00
2023-05-20T03:26:18.784Z,100.00
2023-05-20T03:28:45.682Z,100.00
2023-05-20T03:31:12.630Z,100.00
2023-05-20T03:33:39.404Z,100.00
2023-05-20T03:36:06.828Z,100.00
2023-05-20T03:38:33.465Z,100.00
2023-05-20T03:41:00.147Z,100.00
2023-05-20T03:43:27.340Z,100.00
2023-05-20T03:45:53.913Z,100.00
2023-05-20T03:48:20.907Z,100.00
2023-05-20T03:50:47.665Z,100.00
2023-05-20T03:53:14.326Z,100.00
2023-05-20T03:55:41.668Z,100.00
2023-05-20T03:58:08.781Z,100.00
2023-05-20T04:00:35.814Z,100.00
2023-05-20T04:03:03.304Z,100.00
2023-05-20T04:05:29.984Z,100.00
2023-05-20T04:07:57.648Z,100.00
2023-05-20T04:10:24.358Z,100.00
2023-05-20T04:12:51.084Z,100.00
2023-05-20T04:15:17.794Z,100.00
2023-05-20T04:17:45.338Z,100.00
2023-05-20T04:20:12.346Z,100.00
2023-05-20T04:22:39.948Z,100.00
2023-05-20T04:25:07.178Z,100.00
2023-05-20T04:27:34.177Z,100.00
2023-05-20T04:30:02.571Z,100.00
2023-05-20T04:32:29.429Z,100.00
2023-05-20T04:34:56.294Z,100.00
2023-05-20T04:37:23.089Z,100.00
2023-05-20T04:39:50.156Z,100.00
2023-05-20T04:42:21.671Z,100.00
2023-05-20T04:44:48.981Z,100.00
2023-05-20T04:47:15.816Z,100.00
2023-05-20T04:49:42.623Z,100.00
2023-05-20T04:52:09.284Z,100.00
2023-05-20T04:54:36.043Z,100.00
2023-05-20T04:57:03.079Z,100.00
2023-05-20T04:59:29.711Z,100.00
2023-05-20T05:01:56.352Z,100.00
2023-05-20T05:04:23.396Z,100.00
2023-05-20T05:06:50.109Z,100.00
2023-05-20T05:09:16.966Z,100.00
2023-05-20T05:11:43.643Z,100.00
2023-05-20T05:14:10.380Z,100.00
2023-05-20T05:16:37.107Z,100.00
2023-05-20T05:19:03.759Z,100.00
2023-05-20T05:21:30.478Z,100.00
2023-05-20T05:23:58.510Z,100.00
2023-05-20T05:26:25.173Z,100.00
2023-05-20T05:28:51.889Z,100.00
2023-05-20T05:31:18.510Z,100.00
2023-05-20T05:33:45.109Z,100.00
2023-05-20T05:36:11.811Z,100.00
2023-05-20T05:38:38.436Z,100.00
2023-05-20T05:41:05.034Z,100.00
2023-05-20T05:43:31.811Z,100.00
2023-05-20T05:45:58.465Z,100.00
2023-05-20T05:48:25.240Z,100.00
2023-05-20T05:50:52.095Z,100.00
2023-05-20T05:53:18.836Z,100.00
2023-05-20T05:55:48.477Z,100.00
2023-05-20T05:58:15.318Z,100.00
2023-05-20T06:00:42.117Z,100.00
2023-05-20T06:03:08.902Z,100.00
2023-05-20T06:05:35.850Z,100.00
2023-05-20T06:08:02.936Z,100.00
2023-05-20T06:10:29.595Z,100.00
2023-05-20T06:12:56.275Z,100.00
2023-05-20T06:15:22.850Z,100.00
2023-05-20T06:17:49.518Z,100.00
2023-05-20T06:20:16.449Z,100.00
2023-05-20T06:22:43.126Z,100.00
2023-05-20T06:25:10.513Z,100.00
2023-05-20T06:27:37.176Z,100.00
2023-05-20T06:30:04.107Z,100.00
2023-05-20T06:32:30.876Z,100.00
2023-05-20T06:34:57.592Z,100.00
2023-05-20T06:37:24.677Z,100.00
2023-05-20T06:39:54.168Z,100.00
2023-05-20T06:42:21.665Z,100.00
2023-05-20T06:44:48.408Z,100.00
2023-05-20T06:47:17.055Z,100.00
2023-05-20T06:49:47.401Z,100.00
2023-05-20T06:52:14.377Z,100.00
2023-05-20T06:54:41.958Z,100.00
2023-05-20T06:57:09.155Z,100.00
2023-05-20T06:59:37.210Z,100.00
2023-05-20T07:02:04.536Z,100.00
2023-05-20T07:04:31.196Z,100.00
2023-05-20T07:06:58.086Z,100.00
2023-05-20T07:09:24.808Z,100.00
2023-05-20T07:11:51.618Z,100.00
2023-05-20T07:14:18.413Z,100.00
2023-05-20T07:16:45.033Z,100.00
2023-05-20T07:19:11.799Z,100.00
2023-05-20T07:21:38.676Z,100.00
2023-05-20T07:24:08.494Z,100.00
2023-05-20T07:26:36.636Z,100.00
2023-05-20T07:29:06.733Z,100.00
2023-05-20T07:31:33.606Z,100.00
2023-05-20T07:34:01.322Z,100.00
2023-05-20T07:36:28.562Z,100.00
2023-05-20T07:39:02.664Z,100.00
2023-05-20T07:41:30.183Z,100.00
2023-05-20T07:43:56.863Z,100.00
2023-05-20T07:46:23.612Z,100.00
2023-05-20T07:48:50.348Z,100.00
2023-05-20T07:51:17.011Z,100.00
2023-05-20T07:53:43.678Z,100.00
2023-05-20T07:56:10.373Z,100.00
2023-05-20T07:58:37.341Z,100.00
2023-05-20T08:01:04.235Z,100.00
2023-05-20T08:03:30.862Z,100.00
2023-05-20T08:05:57.584Z,100.00
2023-05-20T08:08:24.296Z,100.00
2023-05-20T08:10:52.662Z,100.00
2023-05-20T08:13:19.266Z,100.00
2023-05-20T08:15:45.968Z,100.00
2023-05-20T08:18:12.884Z,100.00
2023-05-20T08:20:39.826Z,100.00
2023-05-20T08:23:06.701Z,100.00
2023-05-20T08:25:33.547Z,100.00
2023-05-20T08:28:07.454Z,100.00
2023-05-20T08:30:34.873Z,100.00
2023-05-20T08:33:02.100Z,100.00
2023-05-20T08:35:29.196Z,100.00
2023-05-20T08:37:55.892Z,100.00
2023-05-20T08:40:23.352Z,98.80
2023-05-20T08:42:53.146Z,99.17
2023-05-20T08:45:24.255Z,97.84
2023-05-20T08:47:51.007Z,97.29
2023-05-20T08:50:17.939Z,96.25
2023-05-20T08:52:49.489Z,89.48
2023-05-20T08:55:22.984Z,90.82
2023-05-20T08:57:51.681Z,88.56
2023-05-20T09:00:18.755Z,92.11
2023-05-20T09:02:46.449Z,92.52
2023-05-20T09:05:13.546Z,94.21
2023-05-20T09:07:40.298Z,93.05
2023-05-20T09:10:07.336Z,94.95
2023-05-20T09:12:33.938Z,93.70
2023-05-20T09:15:00.853Z,93.25
2023-05-20T09:17:27.789Z,93.28
2023-05-20T09:19:54.764Z,89.70
2023-05-20T09:22:25.867Z,88.26
2023-05-20T09:24:53.010Z,87.56
2023-05-20T09:27:21.246Z,86.44
2023-05-20T09:29:51.881Z,87.63
2023-05-20T09:32:21.776Z,85.23
2023-05-20T09:34:48.919Z,83.94
2023-05-20T09:37:21.805Z,85.74
2023-05-20T09:39:59.907Z,89.30
2023-05-20T09:42:38.530Z,88.68
2023-05-20T09:45:07.152Z,90.23
2023-05-20T09:47:34.365Z,90.64
2023-05-20T09:50:04.078Z,90.38
2023-05-20T09:52:34.656Z,91.04
2023-05-20T09:55:05.891Z,88.00
2023-05-20T09:57:36.965Z,86.01
2023-05-20T10:00:06.464Z,82.73
2023-05-20T10:02:36.788Z,81.15
2023-05-20T10:05:08.004Z,82.84
2023-05-20T10:08:05.993Z,81.34
2023-05-20T10:10:52.162Z,83.72
2023-05-20T10:14:04.977Z,84.36
2023-05-20T10:17:02.818Z,83.56
2023-05-20T10:19:32.576Z,85.54
2023-05-20T10:22:02.294Z,86.05
2023-05-20T10:24:41.372Z,87.44
2023-05-20T10:27:17.321Z,86.43
2023-05-20T10:29:52.252Z,87.41
2023-05-20T10:32:30.046Z,85.72
2023-05-20T10:35:02.024Z,82.74
2023-05-20T10:37:31.179Z,84.00
2023-05-20T10:40:08.646Z,85.54
2023-05-20T10:42:35.284Z,85.82
2023-05-20T10:45:01.869Z,84.67
2023-05-20T10:47:28.640Z,82.99
2023-05-20T10:49:55.703Z,80.63
2023-05-20T10:52:24.017Z,81.65
2023-05-20T10:54:53.980Z,80.94
2023-05-20T10:57:21.678Z,82.42
2023-05-20T10:59:49.260Z,77.92
2023-05-20T11:02:17.191Z,74.85
2023-05-20T11:04:44.847Z,76.17
2023-05-20T11:07:11.877Z,76.89
2023-05-20T11:09:39.055Z,77.03
2023-05-20T11:12:06.415Z,79.87
2023-05-20T11:14:33.348Z,80.83
2023-05-20T11:17:00.678Z,80.48
2023-05-20T11:19:28.210Z,82.44
2023-05-20T11:21:55.218Z,82.69
2023-05-20T11:24:32.265Z,83.85
2023-05-20T11:27:02.402Z,85.02
2023-05-20T11:29:29.336Z,85.23
2023-05-20T11:31:56.090Z,80.94
2023-05-20T11:34:25.811Z,80.96
2023-05-20T11:37:00.113Z,79.75
2023-05-20T11:39:30.467Z,79.72
2023-05-20T11:41:58.375Z,84.29
2023-05-20T11:44:25.277Z,81.01
2023-05-20T11:46:52.185Z,82.17
2023-05-20T11:49:18.872Z,80.38
2023-05-20T11:51:45.639Z,81.05
2023-05-20T11:54:12.331Z,82.09
2023-05-20T11:56:41.572Z,84.29
2023-05-20T11:59:10.746Z,86.21
2023-05-20T12:01:43.701Z,87.29
2023-05-20T12:04:11.123Z,85.77
2023-05-20T12:06:37.892Z,83.91
2023-05-20T12:09:07.384Z,83.01
2023-05-20T12:11:39.970Z,82.23
2023-05-20T12:14:06.918Z,82.30
2023-05-20T12:16:34.864Z,85.52
2023-05-20T12:19:01.819Z,85.16
2023-05-20T12:21:29.897Z,85.75
2023-05-20T12:23:59.403Z,87.62
2023-05-20T12:26:27.475Z,90.42
2023-05-20T12:28:54.535Z,92.35
2023-05-20T12:31:21.590Z,88.66
2023-05-20T12:33:48.378Z,84.58
2023-05-20T12:36:15.460Z,82.17
2023-05-20T12:38:42.214Z,78.45
2023-05-20T12:41:08.910Z,75.20
2023-05-20T12:43:37.571Z,77.81
2023-05-20T12:46:05.150Z,75.55
2023-05-20T12:48:32.019Z,79.09
2023-05-20T12:50:58.856Z,79.45
2023-05-20T12:53:25.600Z,80.65
2023-05-20T12:55:52.541Z,84.34
2023-05-20T12:58:19.348Z,84.01
2023-05-20T13:00:46.095Z,83.76
2023-05-20T13:03:12.777Z,81.79
2023-05-20T13:05:39.505Z,79.71
2023-05-20T13:08:06.459Z,81.71
2023-05-20T13:10:33.730Z,81.24
2023-05-20T13:13:00.537Z,84.04
2023-05-20T13:15:27.293Z,82.79
2023-05-20T13:17:54.625Z,82.13
2023-05-20T13:20:21.696Z,83.08
2023-05-20T13:22:50.278Z,82.88
2023-05-20T13:25:17.064Z,83.27
2023-05-20T13:27:43.952Z,78.83
2023-05-20T13:30:11.092Z,80.33
2023-05-20T13:32:37.920Z,85.27
2023-05-20T13:35:05.145Z,86.87
2023-05-20T13:37:31.735Z,86.10
2023-05-20T13:39:58.581Z,85.32
2023-05-20T13:42:25.245Z,87.36
2023-05-20T13:44:51.906Z,85.18
2023-05-20T13:47:18.569Z,87.70
2023-05-20T13:49:45.271Z,85.73
2023-05-20T13:52:11.933Z,85.22
2023-05-20T13:54:38.631Z,84.83
2023-05-20T13:57:08.178Z,81.64
2023-05-20T13:59:35.399Z,79.88
2023-05-20T14:02:02.677Z,78.35
2023-05-20T14:04:31.322Z,79.03
2023-05-20T14:06:59.492Z,81.45
2023-05-20T14:09:26.503Z,81.55
2023-05-20T14:11:53.316Z,80.59
2023-05-20T14:14:19.948Z,82.32
2023-05-20T14:16:46.736Z,84.45
2023-05-20T14:19:13.514Z,82.48
2023-05-20T14:21:40.176Z,84.69
2023-05-20T14:24:07.149Z,82.54
2023-05-20T14:26:34.686Z,83.67
2023-05-20T14:29:01.478Z,83.76
2023-05-20T14:31:28.393Z,85.15
2023-05-20T14:33:55.170Z,84.99
2023-05-20T14:36:21.758Z,85.88
2023-05-20T14:38:49.598Z,85.71
2023-05-20T14:41:16.670Z,85.71
2023-05-20T14:43:43.318Z,85.71
2023-05-20T14:46:10.495Z,86.97
2023-05-20T14:48:37.483Z,89.10
2023-05-20T14:51:04.343Z,88.62
2023-05-20T14:53:31.074Z,90.85
2023-05-20T14:55:57.884Z,97.32
2023-05-20T14:58:24.721Z,99.52
2023-05-20T15:00:53.600Z,100.00
2023-05-20T15:03:20.588Z,100.00
2023-05-20T15:05:47.255Z,100.00
2023-05-20T15:08:13.925Z,100.00
2023-05-20T15:10:40.745Z,100.00
2023-05-20T15:13:07.759Z,100.00
2023-05-20T15:15:34.620Z,100.00
2023-05-20T15:18:01.581Z,100.00
2023-05-20T15:20:28.343Z,100.00
2023-05-20T15:22:55.181Z,100.00
2023-05-20T15:25:21.829Z,100.00
2023-05-20T15:27:48.497Z,100.00
2023-05-20T15:30:15.805Z,100.00
2023-05-20T15:32:43.008Z,100.00
2023-05-20T15:35:09.964Z,100.00
2023-05-20T15:37:36.589Z,100.00
2023-05-20T15:40:03.385Z,100.00
2023-05-20T15:42:30.131Z,100.00
2023-05-20T15:44:57.181Z,100.00
2023-05-20T15:47:23.838Z,100.00
2023-05-20T15:49:50.967Z,100.00
2023-05-20T15:52:17.658Z,100.00
2023-05-20T15:54:44.454Z,100.00
2023-05-20T15:57:11.167Z,100.00
2023-05-20T15:59:37.767Z,100.00
2023-05-20T16:02:04.542Z,100.00
2023-05-20T16:04:31.248Z,100.00
2023-05-20T16:06:57.946Z,100.00
2023-05-20T16:09:24.661Z,100.00
2023-05-20T16:11:51.332Z,100.00
2023-05-20T16:14:17.953Z,100.00
2023-05-20T16:16:44.851Z,100.00
2023-05-20T16:19:11.635Z,100.00
2023-05-20T16:21:38.435Z,100.00
2023-05-20T16:24:05.307Z,100.00
2023-05-20T16:26:32.217Z,100.00
2023-05-20T16:28:58.885Z,100.00
2023-05-20T16:31:26.811Z,100.00
2023-05-20T16:33:53.667Z,100.00
2023-05-20T16:36:20.396Z,100.00
2023-05-20T16:38:47.730Z,100.00
2023-05-20T16:41:16.115Z,100.00
2023-05-20T16:43:43.393Z,100.00
2023-05-20T16:46:10.370Z,100.00
2023-05-20T16:48:37.195Z,100.00
2023-05-20T16:51:04.193Z,100.00
2023-05-20T16:53:30.995Z,100.00
2023-05-20T16:55:57.736Z,100.00
2023-05-20T16:58:24.317Z,100.00
2023-05-20T17:00:51.037Z,100.00
2023-05-20T17:03:18.189Z,100.00
2023-05-20T17:05:44.917Z,100.00
2023-05-20T17:08:11.634Z,100.00
2023-05-20T17:10:38.343Z,100.00
2023-05-20T17:13:05.195Z,100.00
2023-05-20T17:15:33.065Z,100.00
2023-05-20T17:17:59.843Z,100.00
2023-05-20T17:20:26.546Z,100.00
2023-05-20T17:22:53.174Z,100.00
2023-05-20T17:25:19.887Z,100.00
2023-05-20T17:27:46.502Z,100.00
2023-05-20T17:30:13.503Z,100.00
2023-05-20T17:32:40.830Z,100.00
2023-05-20T17:35:08.654Z,100.00
2023-05-20T17:37:35.916Z,100.00
2023-05-20T17:40:05.962Z,100.00
2023-05-20T17:42:33.348Z,100.00
2023-05-20T17:45:00.009Z,100.00
2023-05-20T17:47:26.683Z,100.00
2023-05-20T17:49:53.374Z,100.00
2023-05-20T17:52:20.018Z,100.00
2023-05-20T17:54:46.739Z,100.00
2023-05-20T17:57:13.389Z,100.00
2023-05-20T17:59:42.107Z,100.00
2023-05-20T18:02:09.062Z,100.00
2023-05-20T18:04:35.983Z,100.00
2023-05-20T18:07:04.132Z,100.00
2023-05-20T18:09:31.268Z,100.00
2023-05-20T18:11:57.958Z,100.00
2023-05-20T18:14:26.664Z,100.00
2023-05-20T18:16:54.905Z,100.00
2023-05-20T18:19:21.682Z,100.00
2023-05-20T18:21:48.409Z,100.00
2023-05-20T18:24:16.850Z,100.00
2023-05-20T18:26:43.757Z,100.00
2023-05-20T18:29:12.564Z,100.00
2023-05-20T18:31:40.383Z,100.00
2023-05-20T18:34:08.038Z,100.00
2023-05-20T18:36:34.966Z,100.00
2023-05-20T18:39:01.640Z,100.00
2023-05-20T18:41:43.277Z,100.00
2023-05-20T18:44:14.170Z,100.00
2023-05-20T18:46:41.161Z,100.00
2023-05-20T18:49:08.488Z,100.00
2023-05-20T18:51:35.105Z,100.00
2023-05-20T18:54:01.865Z,100.00
2023-05-20T18:56:28.773Z,100.00
2023-05-20T18:58:55.760Z,100.00
2023-05-20T19:01:22.528Z,100.00
2023-05-20T19:03:49.241Z,100.00
2023-05-20T19:06:16.819Z,100.00
2023-05-20T19:08:44.576Z,100.00
2023-05-20T19:11:11.281Z,100.00
2023-05-20T19:13:37.949Z,100.00
2023-05-20T19:16:04.817Z,100.00
2023-05-20T19:18:31.461Z,100.00
2023-05-20T19:20:58.195Z,100.00
2023-05-20T19:23:24.827Z,100.00
2023-05-20T19:25:51.584Z,100.00
2023-05-20T19:28:18.474Z,100.00
2023-05-20T19:30:45.215Z,100.00
2023-05-20T19:33:14.891Z,100.00
2023-05-20T19:35:41.570Z,100.00
2023-05-20T19:38:08.271Z,100.00
2023-05-20T19:40:35.729Z,100.00
2023-05-20T19:43:05.246Z,100.00
2023-05-20T19:45:32.500Z,100.00
2023-05-20T19:47:59.337Z,100.00
2023-05-20T19:50:26.958Z,100.00
2023-05-20T19:52:55.167Z,100.00
2023-05-20T19:55:21.959Z,100.00
2023-05-20T19:57:53.388Z,100.00
2023-05-20T20:00:23.155Z,100.00
2023-05-20T20:02:50.411Z,100.00
2023-05-20T20:05:17.305Z,100.00
2023-05-20T20:07:43.957Z,100.00
2023-05-20T20:10:11.126Z,100.00
2023-05-20T20:12:37.777Z,100.00
2023-05-20T20:15:04.784Z,100.00
2023-05-20T20:17:33.852Z,100.00
2023-05-20T20:20:01.233Z,100.00
2023-05-20T20:22:28.051Z,100.00
2023-05-20T20:24:54.693Z,100.00
2023-05-20T20:27:23.883Z,100.00
2023-05-20T20:29:50.869Z,100.00
2023-05-20T20:32:17.678Z,100.00
2023-05-20T20:34:46.164Z,100.00
2023-05-20T20:37:15.383Z,100.00
2023-05-20T20:39:42.316Z,100.00
2023-05-20T20:42:08.982Z,100.00
2023-05-20T20:44:35.620Z,100.00
2023-05-20T20:47:04.514Z,100.00
2023-05-20T20:49:32.276Z,100.00
2023-05-20T20:51:59.125Z,100.00
2023-05-20T20:54:26.677Z,100.00
2023-05-20T20:56:56.832Z,100.00
2023-05-20T20:59:26.746Z,100.00
2023-05-20T21:01:54.261Z,100.00
2023-05-20T21:04:21.273Z,100.00
2023-05-20T21:06:47.989Z,100.00
2023-05-20T21:09:15.395Z,100.00
2023-05-20T21:11:42.543Z,100.00
2023-05-20T21:14:10.093Z,100.00
2023-05-20T21:16:36.786Z,100.00
2023-05-20T21:19:03.863Z,100.00
2023-05-20T21:21:31.857Z,100.00
2023-05-20T21:23:58.649Z,100.00
2023-05-20T21:26:25.902Z,100.00
2023-05-20T21:28:53.023Z,100.00
2023-05-20T21:31:20.040Z,100.00
2023-05-20T21:33:46.717Z,100.00
2023-05-20T21:36:13.418Z,100.00
2023-05-20T21:38:40.197Z,100.00
2023-05-20T21:41:07.059Z,100.00
2023-05-20T21:43:33.713Z,100.00
2023-05-20T21:46:00.467Z,100.00
2023-05-20T21:48:27.230Z,100.00
2023-05-20T21:50:53.992Z,100.00
2023-05-20T21:53:20.729Z,100.00
2023-05-20T21:55:47.376Z,100.00
2023-05-20T21:58:14.030Z,100.00
2023-05-20T22:00:44.398Z,100.00
2023-05-20T22:03:12.344Z,100.00
2023-05-20T22:05:39.077Z,100.00
2023-05-20T22:08:05.932Z,100.00
2023-05-20T22:10:34.363Z,100.00
2023-05-20T22:13:02.286Z,100.00
2023-05-20T22:15:29.177Z,100.00
2023-05-20T22:17:55.991Z,100.00
2023-05-20T22:20:22.883Z,100.00
2023-05-20T22:22:49.713Z,100.00
2023-05-20T22:25:17.421Z,100.00
2023-05-20T22:27:44.120Z,100.00
2023-05-20T22:30:12.393Z,100.00
2023-05-20T22:32:39.484Z,100.00
2023-05-20T22:35:06.785Z,100.00
2023-05-20T22:37:33.676Z,100.00
2023-05-20T22:40:00.711Z,100.00
2023-05-20T22:42:27.322Z,100.00
2023-05-20T22:44:53.989Z,100.00
2023-05-20T22:47:20.827Z,100.00
2023-05-20T22:49:47.428Z,100.00
2023-05-20T22:52:14.611Z,100.00
2023-05-20T22:54:41.448Z,100.00
2023-05-20T22:57:08.453Z,100.00
2023-05-20T22:59:36.766Z,100.00
2023-05-20T23:02:04.086Z,100.00
2023-05-20T23:04:30.774Z,100.00
2023-05-20T23:06:59.456Z,100.00
2023-05-20T23:09:26.392Z,100.00
2023-05-20T23:11:52.985Z,100.00
2023-05-20T23:14:20.294Z,100.00
2023-05-20T23:16:47.215Z,100.00
2023-05-20T23:19:14.236Z,100.00
2023-05-20T23:21:40.887Z,100.00
2023-05-20T23:24:07.666Z,100.00
2023-05-20T23:26:34.732Z,100.00
2023-05-20T23:29:01.708Z,100.00
2023-05-20T23:31:30.174Z,100.00
2023-05-20T23:33:59.919Z,100.00
2023-05-20T23:36:29.173Z,100.00
2023-05-20T23:38:58.957Z,100.00
2023-05-20T23:41:26.081Z,100.00
2023-05-20T23:43:52.728Z,100.00
2023-05-20T23:46:19.406Z,100.00
2023-05-20T23:48:48.464Z,100.00
2023-05-20T23:51:16.490Z,100.00
2023-05-20T23:53:44.732Z,100.00
2023-05-20T23:56:11.625Z,100.00
2023-05-20T23:58:41.029Z,100.00
